createdAt,value
2022-09-26T00:00:31.587Z,1.65
2022-09-26T00:01:39.134Z,1.50
2022-09-26T00:02:43.196Z,1.55
2022-09-26T00:03:58.855Z,1.48
2022-09-26T00:05:02.523Z,1.60
2022-09-26T00:06:08.894Z,1.60
2022-09-26T00:07:12.460Z,1.63
2022-09-26T00:08:16.165Z,1.70
2022-09-26T00:09:21.014Z,1.90
2022-09-26T00:10:24.560Z,1.63
2022-09-26T00:11:33.003Z,1.75
2022-09-26T00:12:36.570Z,1.67
2022-09-26T00:13:42.447Z,1.60
2022-09-26T00:14:46.297Z,1.50
2022-09-26T00:15:49.848Z,1.48
2022-09-26T00:16:54.946Z,1.63
2022-09-26T00:17:58.656Z,1.80
2022-09-26T00:19:03.162Z,1.67
2022-09-26T00:20:07.417Z,1.40
2022-09-26T00:21:14.462Z,1.83
2022-09-26T00:22:18.056Z,1.35
2022-09-26T00:23:21.714Z,1.42
2022-09-26T00:24:25.528Z,1.80
2022-09-26T00:25:29.211Z,1.35
2022-09-26T00:26:35.732Z,1.55
2022-09-26T00:27:39.523Z,1.63
2022-09-26T00:28:43.289Z,1.42
2022-09-26T00:29:47.152Z,1.70
2022-09-26T00:30:50.839Z,1.58
2022-09-26T00:31:54.435Z,1.40
2022-09-26T00:32:58.108Z,1.50
2022-09-26T00:34:02.473Z,1.38
2022-09-26T00:35:06.887Z,1.75
2022-09-26T00:36:10.898Z,1.48
2022-09-26T00:37:14.597Z,1.73
2022-09-26T00:38:19.526Z,1.70
2022-09-26T00:39:23.243Z,1.67
2022-09-26T00:40:28.190Z,1.50
2022-09-26T00:41:31.933Z,1.50
2022-09-26T00:42:35.601Z,1.70
2022-09-26T00:43:43.335Z,1.50
2022-09-26T00:44:54.770Z,1.80
2022-09-26T00:46:24.790Z,1.50
2022-09-26T00:47:45.123Z,1.40
2022-09-26T00:49:24.051Z,1.83
2022-09-26T00:50:37.928Z,1.95
2022-09-26T00:51:47.671Z,1.50
2022-09-26T00:53:03.542Z,1.75
2022-09-26T00:54:12.691Z,1.75
2022-09-26T00:55:21.439Z,1.73
2022-09-26T00:56:36.183Z,1.42
2022-09-26T00:57:49.875Z,1.50
2022-09-26T00:59:17.333Z,1.55
2022-09-26T01:00:21.533Z,1.50
2022-09-26T01:01:25.542Z,1.75
2022-09-26T01:02:29.977Z,1.63
2022-09-26T01:03:35.844Z,1.52
2022-09-26T01:04:42.559Z,1.95
2022-09-26T01:05:47.200Z,1.55
2022-09-26T01:06:51.007Z,1.70
2022-09-26T01:07:57.460Z,1.67
2022-09-26T01:09:09.166Z,1.70
2022-09-26T01:10:13.300Z,1.70
2022-09-26T01:11:17.444Z,1.58
2022-09-26T01:12:23.349Z,1.70
2022-09-26T01:13:28.938Z,1.50
2022-09-26T01:14:34.715Z,1.60
2022-09-26T01:15:39.278Z,1.67
2022-09-26T01:16:49.560Z,1.80
2022-09-26T01:17:53.500Z,1.52
2022-09-26T01:18:57.157Z,1.80
2022-09-26T01:20:40.387Z,1.58
2022-09-26T01:22:14.974Z,1.50
2022-09-26T01:23:56.866Z,1.50
2022-09-26T01:25:28.800Z,1.60
2022-09-26T01:27:04.677Z,1.45
2022-09-26T01:29:06.076Z,1.58
2022-09-26T01:30:19.127Z,1.63
2022-09-26T01:32:11.562Z,1.63
2022-09-26T01:33:36.383Z,8.13
2022-09-26T01:37:31.881Z,5.75
2022-09-26T01:39:10.218Z,6.70
2022-09-26T01:40:58.117Z,6.50
2022-09-26T01:42:33.065Z,6.85
2022-09-26T01:43:57.031Z,6.00
2022-09-26T01:45:28.236Z,7.85
2022-09-26T01:46:51.182Z,6.95
2022-09-26T01:48:21.763Z,7.68
2022-09-26T01:50:16.381Z,7.78
2022-09-26T01:51:48.700Z,5.80
2022-09-26T01:53:06.417Z,7.75
2022-09-26T01:54:19.169Z,8.45
2022-09-26T01:55:36.002Z,6.07
2022-09-26T01:56:42.152Z,8.80
2022-09-26T01:58:16.189Z,6.97
2022-09-26T01:59:39.290Z,7.30
2022-09-26T02:04:04.388Z,6.63
2022-09-26T02:05:27.807Z,6.15
2022-09-26T02:07:12.708Z,6.70
2022-09-26T02:08:38.036Z,7.10
2022-09-26T02:09:59.425Z,7.22
2022-09-26T02:11:12.545Z,7.22
2022-09-26T02:12:32.918Z,7.03
2022-09-26T02:14:03.876Z,5.97
2022-09-26T02:15:14.296Z,7.70
2022-09-26T02:16:41.697Z,6.70
2022-09-26T02:17:54.911Z,6.70
2022-09-26T02:19:15.437Z,6.35
2022-09-26T02:20:31.528Z,6.53
2022-09-26T02:21:34.984Z,6.47
2022-09-26T02:22:39.349Z,6.13
2022-09-26T02:23:43.375Z,6.95
2022-09-26T02:24:47.020Z,7.03
2022-09-26T02:25:51.126Z,7.43
2022-09-26T02:26:55.116Z,6.15
2022-09-26T02:27:58.979Z,5.88
2022-09-26T02:29:02.761Z,7.32
2022-09-26T02:30:07.670Z,6.68
2022-09-26T02:31:16.743Z,7.80
2022-09-26T02:32:30.061Z,6.82
2022-09-26T02:33:34.101Z,6.50
2022-09-26T02:34:37.679Z,6.68
2022-09-26T02:35:54.274Z,6.80
2022-09-26T02:37:01.426Z,7.53
2022-09-26T02:38:05.941Z,7.13
2022-09-26T02:39:11.277Z,5.85
2022-09-26T02:40:14.975Z,7.43
2022-09-26T02:41:59.779Z,7.25
2022-09-26T02:44:02.918Z,6.30
2022-09-26T02:45:36.761Z,7.70
2022-09-26T02:47:00.053Z,7.15
2022-09-26T02:48:16.952Z,8.73
2022-09-26T02:49:36.557Z,6.00
2022-09-26T02:50:47.961Z,6.65
2022-09-26T02:52:09.264Z,6.18
2022-09-26T02:53:57.534Z,6.90
2022-09-26T02:55:24.657Z,7.47
2022-09-26T02:56:31.447Z,6.28
2022-09-26T02:58:03.949Z,6.10
2022-09-26T02:59:14.625Z,8.00
2022-09-26T03:00:32.942Z,6.45
2022-09-26T03:02:04.151Z,6.38
2022-09-26T03:03:53.180Z,6.80
2022-09-26T03:05:27.013Z,6.63
2022-09-26T03:06:39.748Z,6.95
2022-09-26T03:07:56.733Z,6.15
2022-09-26T03:09:02.372Z,6.53
2022-09-26T03:10:11.153Z,7.78
2022-09-26T03:11:24.058Z,6.82
2022-09-26T03:12:32.025Z,6.18
2022-09-26T03:13:39.050Z,6.00
2022-09-26T03:14:46.021Z,6.40
2022-09-26T03:15:56.611Z,6.25
2022-09-26T03:17:03.511Z,6.85
2022-09-26T03:18:13.269Z,7.00
2022-09-26T03:19:35.936Z,6.03
2022-09-26T03:20:40.937Z,7.20
2022-09-26T03:21:45.402Z,6.50
2022-09-26T03:22:49.745Z,7.28
2022-09-26T03:23:53.886Z,5.70
2022-09-26T03:24:59.778Z,6.25
2022-09-26T03:26:11.213Z,5.32
2022-09-26T03:27:17.513Z,5.80
2022-09-26T03:28:20.931Z,5.97
2022-09-26T03:29:24.681Z,6.20
2022-09-26T03:30:29.978Z,5.60
2022-09-26T03:31:33.663Z,6.97
2022-09-26T03:32:37.456Z,7.40
2022-09-26T03:33:41.071Z,5.93
2022-09-26T03:34:45.290Z,6.75
2022-09-26T03:35:48.739Z,6.47
2022-09-26T03:36:52.239Z,5.40
2022-09-26T03:37:56.289Z,6.60
2022-09-26T03:38:59.780Z,7.22
2022-09-26T03:40:09.572Z,6.68
2022-09-26T03:41:13.444Z,6.38
2022-09-26T03:42:17.812Z,6.78
2022-09-26T03:43:24.299Z,7.32
2022-09-26T03:44:27.846Z,7.18
2022-09-26T03:45:37.404Z,5.55
2022-09-26T03:46:40.814Z,6.80
2022-09-26T03:47:44.454Z,6.63
2022-09-26T03:48:49.898Z,5.75
2022-09-26T03:49:54.346Z,7.05
2022-09-26T03:51:10.756Z,6.55
2022-09-26T03:52:14.746Z,6.47
2022-09-26T03:53:18.952Z,6.97
2022-09-26T03:54:22.761Z,6.72
2022-09-26T03:55:26.258Z,5.68
2022-09-26T03:56:29.975Z,7.10
2022-09-26T03:57:33.470Z,7.18
2022-09-26T03:58:38.284Z,7.28
2022-09-26T03:59:41.951Z,6.15
2022-09-26T04:00:45.443Z,7.07
2022-09-26T04:01:49.126Z,6.47
2022-09-26T04:02:53.014Z,6.60
2022-09-26T04:03:57.955Z,6.55
2022-09-26T04:05:01.535Z,6.88
2022-09-26T04:06:11.182Z,5.93
2022-09-26T04:07:14.993Z,6.22
2022-09-26T04:08:18.447Z,6.85
2022-09-26T04:09:22.171Z,6.15
2022-09-26T04:10:27.581Z,6.53
2022-09-26T04:11:30.985Z,5.80
2022-09-26T04:12:35.059Z,6.85
2022-09-26T04:13:51.492Z,5.75
2022-09-26T04:14:56.130Z,7.30
2022-09-26T04:16:03.695Z,6.20
2022-09-26T04:17:07.201Z,6.75
2022-09-26T04:18:10.761Z,7.40
2022-09-26T04:19:15.175Z,7.88
2022-09-26T04:20:18.695Z,6.18
2022-09-26T04:21:22.318Z,7.40
2022-09-26T04:22:26.093Z,5.82
2022-09-26T04:23:32.230Z,5.55
2022-09-26T04:24:35.771Z,6.70
2022-09-26T04:25:39.177Z,7.00
2022-09-26T04:26:44.571Z,5.97
2022-09-26T04:27:48.078Z,6.40
2022-09-26T04:28:55.391Z,6.97
2022-09-26T04:29:59.141Z,7.50
2022-09-26T04:31:06.679Z,5.93
2022-09-26T04:32:10.834Z,7.53
2022-09-26T04:33:14.517Z,6.55
2022-09-26T04:34:18.175Z,8.15
2022-09-26T04:35:21.746Z,7.00
2022-09-26T04:36:25.260Z,6.53
2022-09-26T04:37:28.876Z,6.38
2022-09-26T04:38:35.094Z,6.72
2022-09-26T04:39:38.923Z,7.68
2022-09-26T04:40:43.082Z,7.53
2022-09-26T04:41:46.905Z,5.85
2022-09-26T04:42:50.575Z,6.78
2022-09-26T04:43:56.631Z,6.45
2022-09-26T04:45:00.296Z,6.50
2022-09-26T04:46:24.554Z,6.53
2022-09-26T04:47:31.539Z,7.82
2022-09-26T04:48:36.259Z,8.35
2022-09-26T04:49:40.086Z,7.07
2022-09-26T04:50:43.787Z,7.75
2022-09-26T04:51:47.872Z,7.03
2022-09-26T04:52:51.843Z,6.65
2022-09-26T04:53:56.222Z,7.68
2022-09-26T04:54:59.814Z,6.60
2022-09-26T04:56:03.775Z,6.05
2022-09-26T04:57:07.304Z,7.90
2022-09-26T04:58:11.174Z,7.25
2022-09-26T04:59:14.738Z,6.75
2022-09-26T05:00:18.653Z,7.03
2022-09-26T05:01:23.035Z,7.78
2022-09-26T05:02:26.690Z,7.45
2022-09-26T05:03:30.240Z,7.28
2022-09-26T05:04:34.491Z,7.22
2022-09-26T05:05:40.099Z,6.88
2022-09-26T05:06:44.349Z,8.20
2022-09-26T05:07:47.731Z,7.13
2022-09-26T05:08:51.291Z,6.78
2022-09-26T05:09:56.353Z,6.75
2022-09-26T05:11:01.585Z,7.28
2022-09-26T05:12:05.343Z,7.68
2022-09-26T05:13:10.952Z,8.15
2022-09-26T05:14:16.911Z,8.55
2022-09-26T05:15:21.679Z,9.40
2022-09-26T05:16:25.550Z,7.50
2022-09-26T05:17:29.217Z,7.82
2022-09-26T05:18:33.730Z,7.05
2022-09-26T05:19:37.616Z,7.43
2022-09-26T05:20:48.371Z,7.40
2022-09-26T05:21:52.110Z,7.13
2022-09-26T05:22:59.634Z,7.25
2022-09-26T05:24:21.609Z,6.85
2022-09-26T05:25:46.905Z,7.05
2022-09-26T05:26:52.852Z,7.28
2022-09-26T05:27:56.503Z,7.22
2022-09-26T05:29:07.741Z,8.00
2022-09-26T05:30:13.020Z,6.97
2022-09-26T05:31:17.905Z,8.02
2022-09-26T05:32:22.305Z,6.72
2022-09-26T05:33:25.844Z,6.88
2022-09-26T05:34:29.528Z,7.97
2022-09-26T05:35:36.291Z,7.22
2022-09-26T05:36:43.881Z,6.88
2022-09-26T05:37:47.876Z,7.35
2022-09-26T05:38:52.462Z,7.65
2022-09-26T05:40:15.202Z,8.57
2022-09-26T05:41:20.100Z,9.48
2022-09-26T05:42:24.377Z,8.63
2022-09-26T05:43:31.169Z,7.68
2022-09-26T05:44:34.954Z,8.82
2022-09-26T05:45:39.417Z,8.10
2022-09-26T05:46:44.091Z,7.80
2022-09-26T05:47:48.809Z,7.38
2022-09-26T05:48:52.900Z,8.57
2022-09-26T05:50:00.267Z,6.80
2022-09-26T05:51:12.772Z,7.80
2022-09-26T05:52:16.668Z,7.82
2022-09-26T05:53:20.289Z,8.40
2022-09-26T05:54:24.321Z,7.82
2022-09-26T05:55:30.143Z,8.68
2022-09-26T05:56:37.493Z,8.32
2022-09-26T05:57:50.533Z,8.40
2022-09-26T05:58:55.213Z,8.00
2022-09-26T05:59:58.595Z,7.93
2022-09-26T06:01:11.318Z,8.40
2022-09-26T06:02:18.555Z,7.78
2022-09-26T06:03:24.289Z,7.68
2022-09-26T06:04:29.455Z,7.97
2022-09-26T06:05:36.761Z,8.43
2022-09-26T06:06:40.438Z,7.30
2022-09-26T06:07:46.158Z,7.85
2022-09-26T06:08:50.435Z,7.82
2022-09-26T06:09:54.399Z,7.55
2022-09-26T06:11:04.330Z,7.78
2022-09-26T06:12:09.033Z,7.70
2022-09-26T06:13:15.538Z,7.18
2022-09-26T06:14:19.180Z,7.68
2022-09-26T06:15:24.942Z,8.60
2022-09-26T06:16:29.657Z,7.90
2022-09-26T06:17:33.312Z,8.07
2022-09-26T06:18:38.714Z,7.72
2022-09-26T06:19:42.355Z,8.63
2022-09-26T06:20:45.889Z,7.32
2022-09-26T06:21:49.473Z,8.70
2022-09-26T06:22:55.258Z,8.00
2022-09-26T06:23:59.053Z,7.40
2022-09-26T06:25:02.491Z,8.43
2022-09-26T06:26:09.202Z,7.57
2022-09-26T06:27:15.304Z,7.93
2022-09-26T06:28:18.876Z,8.32
2022-09-26T06:29:22.524Z,7.70
2022-09-26T06:30:27.221Z,9.57
2022-09-26T06:31:31.147Z,9.90
2022-09-26T06:32:36.665Z,8.82
2022-09-26T06:33:41.630Z,7.10
2022-09-26T06:34:46.655Z,9.63
2022-09-26T06:36:07.047Z,8.68
2022-09-26T06:37:10.603Z,9.52
2022-09-26T06:38:17.303Z,7.72
2022-09-26T06:39:34.604Z,9.27
2022-09-26T06:40:38.663Z,7.75
2022-09-26T06:41:42.624Z,8.50
2022-09-26T06:42:46.819Z,9.38
2022-09-26T06:43:50.713Z,9.02
2022-09-26T06:44:55.013Z,8.07
2022-09-26T06:45:59.735Z,8.35
2022-09-26T06:47:13.794Z,8.20
2022-09-26T06:48:24.522Z,8.40
2022-09-26T06:49:29.259Z,8.13
2022-09-26T06:50:33.545Z,8.15
2022-09-26T06:51:38.654Z,10.95
2022-09-26T06:52:44.221Z,9.35
2022-09-26T07:06:00.178Z,7.80
2022-09-26T07:07:04.974Z,7.97
2022-09-26T07:08:09.517Z,8.10
2022-09-26T07:09:13.175Z,7.70
2022-09-26T07:10:19.871Z,7.22
2022-09-26T07:11:38.094Z,9.32
2022-09-26T07:12:49.772Z,8.93
2022-09-26T07:13:53.433Z,8.55
2022-09-26T07:14:59.817Z,7.45
2022-09-26T07:16:03.561Z,8.25
2022-09-26T07:17:08.238Z,8.70
2022-09-26T07:18:12.064Z,8.25
2022-09-26T07:19:17.313Z,6.65
2022-09-26T07:20:21.318Z,7.25
2022-09-26T07:21:25.125Z,7.50
2022-09-26T07:22:29.533Z,7.72
2022-09-26T07:23:33.875Z,7.25
2022-09-26T07:24:37.488Z,7.97
2022-09-26T07:25:44.972Z,6.53
2022-09-26T07:26:48.955Z,7.35
2022-09-26T07:28:01.477Z,8.50
2022-09-26T07:29:17.054Z,8.35
2022-09-26T07:30:21.238Z,6.95
2022-09-26T07:31:24.947Z,7.90
2022-09-26T07:32:31.271Z,7.50
2022-09-26T07:33:34.936Z,8.02
2022-09-26T07:34:38.878Z,8.60
2022-09-26T07:35:44.484Z,7.15
2022-09-26T07:36:48.146Z,7.38
2022-09-26T07:37:53.066Z,8.30
2022-09-26T07:38:57.015Z,7.43
2022-09-26T07:40:01.748Z,6.80
2022-09-26T07:41:06.180Z,7.10
2022-09-26T07:42:14.618Z,8.15
2022-09-26T07:43:20.527Z,8.65
2022-09-26T07:45:20.598Z,6.93
2022-09-26T07:46:12.429Z,7.88
2022-09-26T07:47:36.128Z,8.65
2022-09-26T07:48:58.773Z,8.38
2022-09-26T07:50:13.332Z,7.90
2022-09-26T07:51:16.917Z,8.52
2022-09-26T07:52:22.634Z,8.05
2022-09-26T07:53:27.475Z,8.48
2022-09-26T07:54:31.062Z,6.82
2022-09-26T07:55:54.744Z,6.50
2022-09-26T07:56:58.625Z,8.02
2022-09-26T07:58:02.072Z,6.65
2022-09-26T07:59:06.067Z,7.70
2022-09-26T08:00:14.829Z,8.25
2022-09-26T08:01:18.532Z,7.28
2022-09-26T08:02:30.617Z,8.05
2022-09-26T08:03:35.126Z,8.07
2022-09-26T08:04:39.142Z,9.05
2022-09-26T08:05:42.791Z,8.70
2022-09-26T08:06:47.143Z,7.55
2022-09-26T08:07:51.518Z,8.27
2022-09-26T08:08:56.088Z,7.22
2022-09-26T08:10:02.066Z,8.35
2022-09-26T08:11:12.747Z,7.28
2022-09-26T08:12:18.864Z,7.90
2022-09-26T08:13:22.809Z,8.32
2022-09-26T08:14:26.360Z,7.93
2022-09-26T08:15:29.908Z,7.82
2022-09-26T08:16:33.444Z,7.20
2022-09-26T08:17:38.429Z,8.40
2022-09-26T08:18:41.819Z,8.05
2022-09-26T08:19:45.870Z,7.50
2022-09-26T08:20:49.652Z,6.93
2022-09-26T08:21:53.233Z,7.45
2022-09-26T08:22:57.248Z,7.85
2022-09-26T08:24:02.519Z,7.72
2022-09-26T08:25:07.356Z,8.93
2022-09-26T08:26:11.097Z,7.45
2022-09-26T08:27:15.093Z,6.70
2022-09-26T08:28:19.122Z,8.52
2022-09-26T08:29:24.047Z,7.30
2022-09-26T08:30:27.743Z,7.78
2022-09-26T08:31:31.587Z,7.70
2022-09-26T08:32:35.246Z,8.05
2022-09-26T08:33:40.367Z,8.43
2022-09-26T08:34:45.387Z,7.72
2022-09-26T08:35:51.947Z,8.88
2022-09-26T08:36:55.443Z,8.38
2022-09-26T08:38:03.253Z,8.48
2022-09-26T08:39:07.679Z,8.43
2022-09-26T08:40:15.077Z,7.05
2022-09-26T08:41:55.940Z,8.75
2022-09-26T08:43:31.460Z,9.07
2022-09-26T08:45:30.337Z,8.02
2022-09-26T08:47:02.884Z,8.07
2022-09-26T08:48:53.672Z,10.10
2022-09-26T08:50:37.570Z,9.00
2022-09-26T08:51:48.201Z,8.73
2022-09-26T08:53:01.569Z,8.45
2022-09-26T08:54:13.567Z,8.43
2022-09-26T08:55:25.751Z,8.40
2022-09-26T08:56:44.254Z,7.75
2022-09-26T08:58:00.755Z,8.07
2022-09-26T08:59:14.291Z,7.10
2022-09-26T09:00:26.824Z,10.35
2022-09-26T09:01:37.995Z,9.95
2022-09-26T09:03:00.507Z,9.20
2022-09-26T09:04:36.351Z,8.05
2022-09-26T09:05:46.800Z,9.48
2022-09-26T09:07:06.744Z,9.23
2022-09-26T09:08:39.902Z,8.98
2022-09-26T09:09:43.442Z,7.82
2022-09-26T09:11:10.584Z,8.23
2022-09-26T09:12:24.312Z,6.65
2022-09-26T09:13:40.200Z,8.80
2022-09-26T09:15:25.331Z,7.93
2022-09-26T09:16:58.599Z,9.30
2022-09-26T09:18:30.519Z,7.15
2022-09-26T09:20:43.248Z,8.00
2022-09-26T09:22:15.053Z,7.55
2022-09-26T09:24:13.148Z,7.90
2022-09-26T09:25:55.692Z,8.38
2022-09-26T09:29:49.393Z,8.02
2022-09-26T09:31:09.896Z,8.88
2022-09-26T09:32:21.160Z,8.85
2022-09-26T09:33:37.704Z,6.88
2022-09-26T09:34:50.117Z,7.35
2022-09-26T09:36:11.147Z,8.48
2022-09-26T09:37:24.351Z,7.60
2022-09-26T09:38:32.138Z,7.25
2022-09-26T09:39:44.793Z,8.95
2022-09-26T09:41:02.982Z,7.63
2022-09-26T09:42:24.765Z,7.78
2022-09-26T09:43:47.615Z,6.95
2022-09-26T09:45:05.610Z,7.85
2022-09-26T09:46:37.959Z,8.23
2022-09-26T09:47:41.982Z,9.15
2022-09-26T09:48:48.597Z,9.00
2022-09-26T09:49:52.940Z,9.10
2022-09-26T09:52:02.545Z,8.27
2022-09-26T09:53:25.465Z,8.85
2022-09-26T09:55:16.339Z,8.75
2022-09-26T09:56:56.689Z,7.53
2022-09-26T09:58:07.210Z,7.75
2022-09-26T09:59:29.158Z,9.55
2022-09-26T10:00:41.963Z,10.55
2022-09-26T10:02:00.207Z,7.88
2022-09-26T10:03:51.666Z,8.77
2022-09-26T10:05:19.782Z,7.97
2022-09-26T10:06:45.594Z,7.63
2022-09-26T10:07:58.127Z,9.07
2022-09-26T10:09:36.092Z,8.88
2022-09-26T10:10:55.300Z,8.80
2022-09-26T10:12:00.145Z,9.27
2022-09-26T10:13:06.260Z,8.43
2022-09-26T10:14:28.701Z,9.18
2022-09-26T10:15:36.477Z,9.50
2022-09-26T10:17:10.627Z,6.65
2022-09-26T10:18:25.797Z,8.43
2022-09-26T10:19:43.524Z,7.40
2022-09-26T10:21:28.320Z,8.45
2022-09-26T10:22:45.135Z,7.80
2022-09-26T10:23:52.124Z,10.35
2022-09-26T10:25:16.025Z,9.38
2022-09-26T10:26:34.694Z,10.70
2022-09-26T10:27:50.685Z,9.40
2022-09-26T10:29:00.007Z,9.02
2022-09-26T10:30:32.101Z,7.93
2022-09-26T10:31:42.658Z,8.23
2022-09-26T10:32:55.484Z,9.95
2022-09-26T10:34:21.783Z,9.32
2022-09-26T10:35:40.110Z,9.45
2022-09-26T10:36:43.708Z,8.93
2022-09-26T10:38:06.122Z,8.38
2022-09-26T10:39:44.118Z,8.90
2022-09-26T10:40:59.782Z,8.30
2022-09-26T10:42:15.084Z,9.20
2022-09-26T10:43:28.875Z,8.35
2022-09-26T10:44:35.229Z,8.70
2022-09-26T10:45:39.219Z,8.45
2022-09-26T10:46:46.734Z,9.27
2022-09-26T10:47:52.077Z,8.15
2022-09-26T10:49:02.198Z,8.35
2022-09-26T10:50:14.822Z,8.27
2022-09-26T10:51:24.517Z,8.20
2022-09-26T10:52:34.814Z,8.05
2022-09-26T10:53:41.437Z,7.75
2022-09-26T10:54:57.327Z,9.10
2022-09-26T10:56:11.339Z,6.93
2022-09-26T10:57:25.258Z,7.40
2022-09-26T10:58:30.011Z,8.23
2022-09-26T10:59:40.028Z,7.85
2022-09-26T11:00:49.596Z,6.38
2022-09-26T11:01:57.258Z,7.07
2022-09-26T11:03:01.295Z,6.57
2022-09-26T11:04:42.129Z,6.82
2022-09-26T11:05:57.421Z,6.85
2022-09-26T11:07:02.026Z,7.15
2022-09-26T11:08:10.394Z,7.10
2022-09-26T11:09:20.771Z,7.13
2022-09-26T11:10:32.563Z,6.60
2022-09-26T11:11:40.329Z,6.70
2022-09-26T11:13:00.231Z,7.43
2022-09-26T11:14:10.715Z,7.63
2022-09-26T11:15:15.266Z,7.20
2022-09-26T11:16:22.190Z,9.43
2022-09-26T11:17:48.170Z,7.57
2022-09-26T11:19:01.593Z,7.13
2022-09-26T11:20:09.737Z,6.93
2022-09-26T11:21:56.210Z,6.72
2022-09-26T11:23:18.017Z,6.65
2022-09-26T11:24:54.951Z,5.93
2022-09-26T11:26:19.078Z,5.07
2022-09-26T11:27:47.182Z,6.35
2022-09-26T11:29:04.413Z,6.68
2022-09-26T11:30:20.974Z,6.05
2022-09-26T11:31:30.338Z,7.38
2022-09-26T11:32:41.171Z,6.25
2022-09-26T11:33:45.346Z,5.63
2022-09-26T11:34:48.995Z,7.50
2022-09-26T11:36:18.216Z,9.05
2022-09-26T11:37:45.779Z,7.10
2022-09-26T11:38:58.023Z,6.20
2022-09-26T11:40:46.293Z,4.85
2022-09-26T11:42:15.561Z,6.65
2022-09-26T11:43:53.477Z,7.05
2022-09-26T11:45:01.406Z,6.00
2022-09-26T11:46:55.967Z,5.53
2022-09-26T11:48:46.622Z,6.15
2022-09-26T11:50:25.587Z,6.38
2022-09-26T11:51:50.976Z,5.25
2022-09-26T11:53:36.584Z,5.43
2022-09-26T11:55:04.829Z,5.20
2022-09-26T11:56:32.437Z,6.38
2022-09-26T11:57:51.000Z,6.78
2022-09-26T11:59:27.914Z,6.40
2022-09-26T12:01:03.269Z,5.88
2022-09-26T12:02:40.523Z,5.60
2022-09-26T12:04:08.503Z,4.53
2022-09-26T12:06:01.927Z,6.45
2022-09-26T12:07:53.425Z,4.93
2022-09-26T12:09:38.654Z,4.75
2022-09-26T12:11:01.380Z,4.20
2022-09-26T12:12:41.489Z,3.47
2022-09-26T12:13:59.704Z,4.60
2022-09-26T12:15:56.233Z,5.03
2022-09-26T12:17:36.225Z,4.90
2022-09-26T12:19:10.406Z,3.55
2022-09-26T12:20:47.218Z,4.55
2022-09-26T12:22:29.759Z,3.17
2022-09-26T12:23:45.703Z,3.35
2022-09-26T12:25:11.498Z,4.55
2022-09-26T12:26:29.857Z,3.80
2022-09-26T12:28:12.500Z,3.90
2022-09-26T12:30:01.683Z,4.10
2022-09-26T12:31:26.355Z,3.75
2022-09-26T12:32:52.990Z,3.85
2022-09-26T12:34:39.428Z,4.68
2022-09-26T12:36:06.231Z,4.25
2022-09-26T12:37:33.875Z,3.78
2022-09-26T12:39:19.037Z,3.30
2022-09-26T12:40:31.908Z,3.83
2022-09-26T12:42:00.939Z,4.00
2022-09-26T12:43:52.147Z,3.30
2022-09-26T12:45:28.321Z,3.47
2022-09-26T12:47:33.262Z,3.72
2022-09-26T12:49:20.585Z,2.72
2022-09-26T12:51:04.063Z,2.70
2022-09-26T12:52:46.071Z,3.17
2022-09-26T12:54:33.787Z,2.65
2022-09-26T12:56:07.195Z,2.83
2022-09-26T12:57:38.652Z,2.70
2022-09-26T12:59:18.284Z,2.58
2022-09-26T13:00:23.334Z,2.90
2022-09-26T13:02:03.900Z,2.70
2022-09-26T13:03:43.081Z,2.80
2022-09-26T13:05:31.864Z,2.55
2022-09-26T13:07:17.158Z,3.22
2022-09-26T13:08:40.400Z,2.38
2022-09-26T13:10:15.468Z,2.40
2022-09-26T13:12:00.429Z,2.60
2022-09-26T13:13:32.711Z,2.78
2022-09-26T13:15:32.556Z,2.42
2022-09-26T13:17:15.738Z,2.10
2022-09-26T13:18:35.148Z,1.95
2022-09-26T13:19:52.047Z,2.08
2022-09-26T13:21:05.555Z,1.73
2022-09-26T13:22:35.316Z,2.03
2022-09-26T13:23:52.597Z,1.85
2022-09-26T13:25:11.991Z,2.47
2022-09-26T13:26:31.002Z,2.22
2022-09-26T13:28:15.988Z,2.25
2022-09-26T13:29:37.508Z,2.17
2022-09-26T13:30:50.181Z,1.92
2022-09-26T13:32:18.454Z,2.22
2022-09-26T13:34:16.446Z,2.30
2022-09-26T13:35:27.759Z,2.20
2022-09-26T13:36:35.352Z,2.35
2022-09-26T13:37:47.908Z,1.67
2022-09-26T13:39:18.239Z,1.60
2022-09-26T13:40:39.436Z,1.80
2022-09-26T13:42:17.577Z,2.28
2022-09-26T13:43:47.808Z,1.88
2022-09-26T13:45:29.560Z,1.75
2022-09-26T13:47:15.177Z,2.17
2022-09-26T13:48:38.578Z,2.53
2022-09-26T13:49:52.035Z,2.67
2022-09-26T13:51:41.976Z,2.70
2022-09-26T13:53:04.540Z,2.17
2022-09-26T13:54:55.768Z,2.30
2022-09-26T13:56:44.504Z,2.40
2022-09-26T13:58:09.307Z,1.77
2022-09-26T13:59:12.779Z,1.60
2022-09-26T14:00:25.362Z,2.10
2022-09-26T14:01:36.700Z,1.70
2022-09-26T14:02:43.012Z,2.13
2022-09-26T14:03:47.272Z,2.15
2022-09-26T14:05:03.347Z,2.05
2022-09-26T14:06:24.703Z,1.80
2022-09-26T14:07:58.864Z,2.35
2022-09-26T14:09:24.233Z,1.85
2022-09-26T14:10:27.899Z,1.45
2022-09-26T14:11:51.638Z,1.55
2022-09-26T14:13:08.555Z,1.85
2022-09-26T14:14:18.358Z,1.70
2022-09-26T14:15:28.503Z,1.77
2022-09-26T14:16:34.963Z,1.77
2022-09-26T14:17:44.292Z,2.25
2022-09-26T14:19:04.381Z,1.88
2022-09-26T14:20:27.409Z,1.50
2022-09-26T14:21:33.946Z,1.92
2022-09-26T14:22:52.768Z,1.67
2022-09-26T14:24:20.894Z,1.65
2022-09-26T14:25:46.383Z,1.90
2022-09-26T14:27:25.763Z,2.30
2022-09-26T14:28:35.768Z,2.08
2022-09-26T14:29:39.414Z,1.53
2022-09-26T14:31:24.460Z,1.65
2022-09-26T14:32:36.142Z,1.63
2022-09-26T14:33:40.750Z,1.98
2022-09-26T14:34:56.991Z,2.05
2022-09-26T14:36:33.553Z,1.73
2022-09-26T14:37:43.639Z,1.67
2022-09-26T14:38:50.553Z,1.85
2022-09-26T14:40:00.487Z,1.48
2022-09-26T14:41:05.892Z,2.33
2022-09-26T14:42:27.484Z,1.55
2022-09-26T14:43:32.106Z,1.70
2022-09-26T14:44:37.434Z,1.65
2022-09-26T14:46:02.994Z,1.58
2022-09-26T14:47:16.440Z,1.60
2022-09-26T14:48:36.879Z,1.45
2022-09-26T14:49:40.968Z,2.13
2022-09-26T14:50:54.095Z,1.65
2022-09-26T14:52:08.904Z,1.90
2022-09-26T14:53:47.161Z,2.60
2022-09-26T14:55:01.310Z,1.60
2022-09-26T14:56:16.995Z,1.80
2022-09-26T14:57:32.542Z,1.95
2022-09-26T14:58:38.672Z,1.88
2022-09-26T14:59:43.535Z,1.25
2022-09-26T15:00:49.783Z,2.08
2022-09-26T15:02:18.936Z,1.80
2022-09-26T15:03:24.576Z,1.85
2022-09-26T15:04:33.022Z,1.70
2022-09-26T15:05:40.284Z,1.70
2022-09-26T15:06:50.712Z,1.98
2022-09-26T15:07:56.003Z,1.63
2022-09-26T15:09:09.497Z,2.22
2022-09-26T15:10:20.749Z,1.95
2022-09-26T15:11:44.497Z,2.00
2022-09-26T15:13:11.622Z,2.55
2022-09-26T15:14:44.064Z,1.75
2022-09-26T15:16:27.272Z,1.95
2022-09-26T15:17:39.057Z,1.80
2022-09-26T15:18:50.220Z,1.98
2022-09-26T15:19:59.524Z,1.63
2022-09-26T15:21:27.165Z,1.60
2022-09-26T15:22:32.060Z,1.98
2022-09-26T15:23:54.018Z,1.95
2022-09-26T15:25:21.165Z,1.70
2022-09-26T15:26:33.225Z,2.17
2022-09-26T15:27:37.021Z,1.75
2022-09-26T15:28:40.483Z,2.75
2022-09-26T15:29:54.811Z,2.15
2022-09-26T15:31:28.966Z,1.88
2022-09-26T15:32:33.944Z,1.70
2022-09-26T15:33:39.681Z,1.58
2022-09-26T15:34:43.682Z,1.63
2022-09-26T15:35:54.613Z,2.28
2022-09-26T15:37:00.381Z,2.35
2022-09-26T15:38:12.911Z,2.28
2022-09-26T15:39:31.649Z,2.08
2022-09-26T15:40:36.287Z,1.60
2022-09-26T15:42:04.090Z,1.92
2022-09-26T15:43:10.642Z,1.90
2022-09-26T15:44:26.048Z,2.47
2022-09-26T15:45:50.093Z,2.05
2022-09-26T15:46:53.775Z,2.15
2022-09-26T15:48:03.339Z,1.75
2022-09-26T15:49:14.578Z,1.92
2022-09-26T15:50:45.104Z,2.10
2022-09-26T15:51:55.819Z,2.10
2022-09-26T15:53:29.136Z,1.88
2022-09-26T15:54:33.357Z,1.60
2022-09-26T15:55:57.770Z,1.92
2022-09-26T15:57:06.548Z,2.25
2022-09-26T15:58:21.724Z,1.95
2022-09-26T15:59:41.524Z,2.28
2022-09-26T16:00:53.723Z,2.67
2022-09-26T16:01:57.601Z,2.17
2022-09-26T16:03:27.119Z,1.83
2022-09-26T16:04:32.925Z,2.05
2022-09-26T16:05:36.713Z,2.50
2022-09-26T16:06:58.063Z,2.45
2022-09-26T16:08:01.879Z,2.40
2022-09-26T16:09:21.585Z,2.10
2022-09-26T16:10:33.394Z,2.33
2022-09-26T16:11:48.635Z,2.35
2022-09-26T16:12:53.185Z,2.42
2022-09-26T16:13:57.048Z,2.80
2022-09-26T16:15:07.394Z,2.25
2022-09-26T16:16:24.552Z,2.63
2022-09-26T16:17:49.794Z,2.80
2022-09-26T16:18:58.659Z,6.07
2022-09-26T16:20:29.677Z,6.65
2022-09-26T16:21:36.520Z,3.58
2022-09-26T16:22:46.961Z,3.60
2022-09-26T16:24:00.033Z,2.78
2022-09-26T16:25:22.853Z,3.35
2022-09-26T16:26:38.706Z,2.55
2022-09-26T16:27:42.946Z,2.78
2022-09-26T16:28:52.356Z,2.35
2022-09-26T16:30:04.142Z,2.60
2022-09-26T16:31:23.278Z,2.50
2022-09-26T16:32:32.349Z,2.15
2022-09-26T16:33:40.181Z,2.80
2022-09-26T16:34:45.359Z,1.75
2022-09-26T16:35:49.513Z,2.70
2022-09-26T16:36:54.347Z,2.42
2022-09-26T16:38:36.706Z,2.17
2022-09-26T16:39:40.234Z,2.45
2022-09-26T16:40:53.966Z,2.10
2022-09-26T16:42:13.642Z,2.00
2022-09-26T16:43:31.814Z,2.83
2022-09-26T16:44:50.330Z,1.85
2022-09-26T16:46:07.731Z,2.85
2022-09-26T16:47:43.174Z,2.97
2022-09-26T16:48:58.754Z,2.97
2022-09-26T16:50:32.484Z,2.75
2022-09-26T16:51:39.898Z,2.70
2022-09-26T16:52:45.896Z,2.72
2022-09-26T16:53:56.505Z,2.20